Kones Corner, South Dakota
Current Conditions -  °F | °C
As of 2:53 PM on Tuesday 21 Oct 2014 (Local Time) from KATY Reporting Station
Clear Clear  
Wind Chill: 73°   Ceiling: Unl
Heat Index: 73°   Visibility: 10mi
Dew Point: 42°   Wind: 20mph
Humidity: 33%   Direction: 160°SSE
Pressure: 29.94"   Gusts: 26mph
Location:  44.7326°N, 97.0258°W
Report Text: KATY 211953Z AUTO 16017G23KT 10SM CLR 23/06 A2994 RMK AO2 SLP137 T02280056
Loading
Personal Weather Stations






























Interactive Weather Map
Tropical Storm Tracking
New forecast layout! Learn more

10-Day Weather Forecast

Advertisements
Track Severe Weather on mobile